Flight Track Log - Related Links

Times and Time Zones

All times are in EDT time to prevent confusion due to time zone crossing. See the SWA2955 flight status page for this flight to view local times or setup timezone preferences in your user account.

Time Position Orientation Groundspeed Altitude Reporting Facility
EDT Latitude Longitude Course Direction KTS MPH feet Rate Location/Type
Tue 03:41:16 PM 32.8333 -96.8333 140° Southeast 151 174 1,800  Level Dallas / Fort Worth TRACON
Tue 03:42:22 PM 32.7833 -96.7833 140° Southeast 200 230 4,100 1,850 Climbing Dallas / Fort Worth TRACON
Tue 03:43:16 PM 32.7500 -96.7500 140° Southeast 213 245 5,500 2,158 Climbing Dallas / Fort Worth TRACON
Tue 03:44:16 PM 32.6833 -96.7500 180° South 234 269 8,200 2,226 Climbing Dallas / Fort Worth TRACON
Tue 03:45:20 PM 32.6147 -96.7672 192° South 245 282 10,100 1,016 Climbing Fort Worth Center
Tue 03:46:20 PM 32.5878 -96.8389 246° West 297 342 10,300 1,900 Climbing Fort Worth Center
Tue 03:47:20 PM 32.5736 -96.9572 262° West 361 415 13,900 3,100 Climbing Fort Worth Center
Tue 03:48:20 PM 32.6178 -97.0681 295° West 383 441 16,500 2,500 Climbing Fort Worth Center
Tue 03:49:20 PM 32.6556 -97.1742 293° West 383 441 18,900 2,600 Climbing Fort Worth Center
Tue 03:50:20 PM 32.7061 -97.3072 294° West 395 455 21,700 2,700 Climbing Fort Worth Center
Tue 03:51:20 PM 32.7478 -97.4233 293° West 405 466 24,300 2,319 Climbing Fort Worth Center
Tue 03:52:19 PM 32.7936 -97.5469 294° West 411 473 26,300 1,950 Climbing Fort Worth Center
Tue 03:53:20 PM 32.8478 -97.6903 294° West 423 487 28,200 1,934 Climbing Fort Worth Center
Tue 03:54:20 PM 32.8681 -97.8314 280° West 429 494 30,200 2,250 Climbing Fort Worth Center
Tue 03:55:20 PM 32.8656 -97.9700 269° West 419 482 32,700 2,350 Climbing Fort Worth Center
Tue 03:56:20 PM 32.8647 -98.1008 270° West 410 472 34,900 1,850 Climbing Fort Worth Center
Tue 03:57:20 PM 32.8619 -98.2297 269° West 397 457 36,400 1,550 Climbing Fort Worth Center
Tue 03:58:20 PM 32.8611 -98.3581 270° West 397 457 38,000 800 Climbing Fort Worth Center
Tue 03:59:20 PM 32.8561 -98.4644 267° West 385 443 38,000  Level Fort Worth Center
Tue 04:00:20 PM 32.8569 -98.5906 270° West 375 432 38,000  Level Fort Worth Center
Tue 04:01:20 PM 32.8558 -98.7167 269° West 380 437 38,000  Level Fort Worth Center
Tue 04:02:20 PM 32.8522 -98.8453 268° West 386 444 38,000  Level Fort Worth Center
Tue 04:03:20 PM 32.8528 -98.9739 270° West 386 444 38,000  Level Fort Worth Center
Tue 04:04:20 PM 32.8492 -99.1025 268° West 386 444 38,000  Level Fort Worth Center
Tue 04:05:20 PM 32.8472 -99.2308 269° West 386 444 38,000  Level Fort Worth Center
Tue 04:06:20 PM 32.8433 -99.3544 268° West 381 438 38,000  Level Fort Worth Center
Tue 04:07:20 PM 32.8414 -99.4781 269° West 381 438 38,000  Level Fort Worth Center
Tue 04:08:20 PM 32.8436 -99.5992 271° West 381 438 38,000  Level Fort Worth Center
Tue 04:09:20 PM 32.8872 -99.7192 293° West 375 432 38,000  Level Fort Worth Center
Tue 04:10:20 PM 32.9369 -99.8492 295° West 388 447 38,000  Level Fort Worth Center
Tue 04:11:20 PM 32.9828 -99.9642 295° West 393 452 38,000  Level Fort Worth Center
Tue 04:12:19 PM 33.0281 -100.0869 294° West 398 458 38,000  Level Fort Worth Center
Tue 04:13:20 PM 33.0714 -100.2072 293° West 398 458 38,000  Level Fort Worth Center
Tue 04:14:20 PM 33.1189 -100.3278 295° West 398 458 38,000  Level Fort Worth Center
Tue 04:15:20 PM 33.1639 -100.4483 294° West 398 458 38,000  Level Fort Worth Center
Tue 04:16:20 PM 33.2111 -100.5717 295° West 398 458 38,000  Level Fort Worth Center
Tue 04:17:20 PM 33.2539 -100.6922 293° West 398 458 38,000  Level Fort Worth Center
Tue 04:18:20 PM 33.2986 -100.8133 294° West 398 458 38,000  Level Fort Worth Center
Tue 04:19:19 PM 33.3453 -100.9319 295° West 398 458 38,000  Level Fort Worth Center
Tue 04:20:20 PM 33.3864 -101.0356 295° West 398 458 38,000  Level Fort Worth Center
Tue 04:21:20 PM 33.4364 -101.1719 294° West 406 467 38,000  Level Fort Worth Center
Tue 04:22:20 PM 33.4750 -101.2808 293° West 401 461 38,000  Level Fort Worth Center
Tue 04:23:20 PM 33.5250 -101.4150 294° West 401 461 38,000  Level Fort Worth Center
Tue 04:24:20 PM 33.5633 -101.5239 293° West 401 461 38,000  Level Fort Worth Center
Tue 04:25:20 PM 33.6131 -101.6583 294° West 401 461 38,000  Level Fort Worth Center
Tue 04:27:28 PM 33.7142 -101.9178 295° West 411 473 38,000  Level Albuquerque Center
Tue 04:28:30 PM 33.8000 -102.0244 314° West 445 512 38,000  Level Albuquerque Center
Tue 04:29:32 PM 33.8900 -102.1267 317° Northwest 447 514 38,000  Level Albuquerque Center
Tue 04:30:34 PM 33.9783 -102.2306 316° Northwest 447 514 38,000  Level Albuquerque Center
Tue 04:31:35 PM 34.0667 -102.3344 316° Northwest 444 511 38,000  Level Albuquerque Center
Tue 04:32:37 PM 34.1561 -102.4392 316° Northwest 447 514 38,000  Level Albuquerque Center
Tue 04:33:39 PM 34.2581 -102.5594 316° Northwest 447 514 38,000  Level Albuquerque Center
Tue 04:34:40 PM 34.3478 -102.6633 316° Northwest 446 513 38,000  Level Albuquerque Center
Tue 04:35:42 PM 34.4372 -102.7697 316° Northwest 448 516 38,000  Level Albuquerque Center
Tue 04:36:44 PM 34.5025 -102.8944 302° West 409 471 38,000  Level Albuquerque Center
Tue 04:37:46 PM 34.5183 -103.0208 279° West 380 437 38,000  Level Albuquerque Center
Tue 04:38:47 PM 34.5328 -103.1486 278° West 379 436 38,000  Level Albuquerque Center
Tue 04:39:49 PM 34.5481 -103.2756 278° West 378 435 38,000 -387 Level Albuquerque Center
Tue 04:40:51 PM 34.5639 -103.4047 279° West 382 440 37,200 -878 Descending Albuquerque Center
Tue 04:41:52 PM 34.5794 -103.5314 279° West 378 435 36,200 -1,024 Descending Albuquerque Center
Tue 04:42:54 PM 34.6081 -103.6839 283° West 390 449 35,100 -968 Descending Albuquerque Center
Tue 04:43:56 PM 34.6425 -103.8181 287° West 407 468 34,200 -919 Descending Albuquerque Center
Tue 04:44:58 PM 34.6753 -103.9506 287° West 407 468 33,200 -1,024 Descending Albuquerque Center
Tue 04:45:59 PM 34.7064 -104.0794 286° West 398 458 32,100 -1,073 Descending Albuquerque Center
Tue 04:47:01 PM 34.7361 -104.2042 286° West 386 444 31,000 -1,016 Descending Albuquerque Center
Tue 04:48:03 PM 34.7672 -104.3286 287° West 380 437 30,000 -484 Descending Albuquerque Center
Tue 04:49:05 PM 34.7969 -104.4553 286° West 383 441 30,000  Level Albuquerque Center
Tue 04:50:06 PM 34.8267 -104.5808 286° West 382 440 30,000  Level Albuquerque Center
Tue 04:51:08 PM 34.8456 -104.7097 280° West 382 440 30,000 -145 Level Albuquerque Center
Tue 04:52:10 PM 34.8564 -104.8394 276° West 380 437 29,700 -629 Descending Albuquerque Center
Tue 04:53:12 PM 34.8689 -104.9725 277° West 387 445 28,700 -927 Descending Albuquerque Center
Tue 04:54:13 PM 34.8806 -105.1064 276° West 391 450 27,800 -1,024 Descending Albuquerque Center
Tue 04:55:15 PM 34.8947 -105.2622 276° West 392 451 26,600 -1,065 Descending Albuquerque Center
Tue 04:56:17 PM 34.9069 -105.3925 277° West 386 444 25,600 -1,065 Descending Albuquerque Center
Tue 04:57:19 PM 34.9181 -105.5222 276° West 383 441 24,400 -1,610 Descending Albuquerque Center
Tue 04:58:20 PM 34.9292 -105.6458 276° West 369 425 22,300 -2,081 Descending Albuquerque Center
Tue 04:59:23 PM 34.9386 -105.7678 275° West 360 414 20,100 -2,281 Descending Albuquerque Center
Tue 05:00:21 PM 34.9456 -105.8967 274° West 359 413 17,700 -1,907 Descending Albuquerque Center
Tue 05:01:10 PM 34.9525 -105.9831 276° West 345 397 16,700 -1,108 Descending Albuquerque Center
Tue 05:01:26 PM 34.9564 -106.0078 281° West 344 396 16,500 -1,164 Descending Albuquerque Center
Tue 05:02:17 PM 34.9556 -106.1069 269° West 312 359 15,400 -1,405 Descending Albuquerque Center
Tue 05:03:17 PM 34.9575 -106.2128 271° West 309 356 13,900 -1,537 Descending Albuquerque Center
Tue 05:04:18 PM 34.9586 -106.3161 271° West 306 352 12,300 -1,537 Descending Albuquerque Center
Tue 05:05:18 PM 34.9594 -106.4169 271° West 299 344 10,800 -1,280 Descending Albuquerque Center
Tue 05:05:33 PM 34.9586 -106.4250 263° West 303 349 10,700 -590 Descending Albuquerque Center
Tue 05:06:19 PM 34.9553 -106.5139 267° West 280 322 10,200 -581 Descending Albuquerque Center
Tue 05:06:35 PM 34.9550 -106.5383 269° West 290 334 10,100 -984 Descending Albuquerque Center
Tue 05:07:20 PM 34.9253 -106.5864 233° Southwest 249 287 9,200 -1,065 Descending Albuquerque Center
Tue 05:07:37 PM 34.9106 -106.6017 220° Southwest 265 305 9,000 -1,000 Descending Albuquerque Center
Tue 05:08:20 PM 34.9011 -106.6550 258° West 215 247 8,200 -1,065 Descending Albuquerque Center
Tue 05:08:39 PM 34.9075 -106.6714 295° West 234 269 7,900 -984 Descending Albuquerque Center
Tue 05:09:21 PM 34.9403 -106.6967 328° Northwest 169 194 7,200 -787 Descending Albuquerque Center
Tue 05:09:40 PM 34.9508 -106.6983 353° North 200 230 7,100 -800 Descending Albuquerque Center
Tue 05:10:21 PM 34.9839 -106.6775 27° Northeast 167 192 6,400 -871 Descending Albuquerque Center
Tue 05:10:42 PM 34.9903 -106.6703 43° Northeast 178 205 6,200 -787 Descending Albuquerque Center
Tue 05:11:22 PM 35.0139 -106.6414 45° Northeast 150 173 5,600 -774 Descending Albuquerque Center
Tue 05:11:44 PM 35.0194 -106.6319 54° Northeast 163 188 5,400 -545 Descending Albuquerque Center

Login

Don't have an account? Register now (free) for customized features, flight alerts, and more!